createdAt,value
2018-04-15T00:01:11.373Z,56.89
2018-04-15T00:03:37.176Z,56.85
2018-04-15T00:06:03.024Z,56.66
2018-04-15T00:08:28.840Z,56.99
2018-04-15T00:10:54.646Z,56.53
2018-04-15T00:13:20.448Z,56.87
2018-04-15T00:15:46.251Z,56.59
2018-04-15T00:18:12.093Z,56.71
2018-04-15T00:20:37.917Z,56.54
2018-04-15T00:23:03.720Z,56.25
2018-04-15T00:25:29.564Z,56.73
2018-04-15T00:27:55.468Z,56.73
2018-04-15T00:30:22.052Z,56.63
2018-04-15T00:32:47.857Z,56.19
2018-04-15T00:35:13.661Z,56.28
2018-04-15T00:37:39.468Z,56.50
2018-04-15T00:40:05.277Z,56.88
2018-04-15T00:42:31.088Z,56.16
2018-04-15T00:44:56.891Z,56.24
2018-04-15T00:47:22.697Z,56.69
2018-04-15T00:49:48.569Z,56.72
2018-04-15T00:52:14.369Z,56.54
2018-04-15T00:54:40.180Z,56.65
2018-04-15T00:57:06.920Z,56.61
2018-04-15T00:59:33.672Z,56.73
2018-04-15T01:02:00.491Z,56.95
2018-04-15T01:04:26.299Z,56.80
2018-04-15T01:06:52.104Z,56.94
2018-04-15T01:09:17.908Z,56.70
2018-04-15T01:11:43.713Z,57.02
2018-04-15T01:14:09.520Z,57.08
2018-04-15T01:16:35.322Z,56.94
2018-04-15T01:19:01.225Z,56.22
2018-04-15T01:21:27.076Z,56.70
2018-04-15T01:23:52.883Z,57.05
2018-04-15T01:26:18.685Z,57.25
2018-04-15T01:28:44.493Z,57.02
2018-04-15T01:31:10.402Z,57.11
2018-04-15T01:33:36.213Z,57.14
2018-04-15T01:36:02.017Z,56.85
2018-04-15T01:38:27.861Z,56.85
2018-04-15T01:40:53.699Z,56.89
2018-04-15T01:43:19.532Z,57.18
2018-04-15T01:45:45.340Z,56.96
2018-04-15T01:48:11.216Z,55.85
2018-04-15T01:50:37.019Z,56.13
2018-04-15T01:53:02.860Z,55.96
2018-04-15T01:55:28.669Z,55.83
2018-04-15T01:57:55.324Z,56.70
2018-04-15T02:00:21.147Z,56.36
2018-04-15T02:02:47.000Z,56.25
2018-04-15T02:05:12.824Z,55.87
2018-04-15T02:07:38.632Z,55.92
2018-04-15T02:10:04.473Z,55.97
2018-04-15T02:12:30.400Z,56.13
2018-04-15T02:14:56.231Z,56.37
2018-04-15T02:17:22.062Z,56.17
2018-04-15T02:19:47.896Z,56.24
2018-04-15T02:22:13.812Z,56.30
2018-04-15T02:24:39.620Z,55.93
2018-04-15T02:27:05.424Z,55.87
2018-04-15T02:29:31.256Z,56.38
2018-04-15T02:31:58.069Z,56.18
2018-04-15T02:34:24.937Z,56.23
2018-04-15T02:36:50.747Z,56.02
2018-04-15T02:39:16.573Z,55.79
2018-04-15T02:41:42.458Z,55.74
2018-04-15T02:44:08.266Z,55.93
2018-04-15T02:46:34.096Z,55.68
2018-04-15T02:48:59.930Z,55.91
2018-04-15T02:51:25.814Z,55.66
2018-04-15T02:53:51.686Z,55.84
2018-04-15T02:56:17.492Z,55.80
2018-04-15T02:58:43.293Z,56.16
2018-04-15T03:01:09.118Z,55.80
2018-04-15T03:03:34.933Z,55.77
2018-04-15T03:06:00.737Z,55.45
2018-04-15T03:08:26.543Z,55.85
2018-04-15T03:10:52.360Z,55.58
2018-04-15T03:13:18.164Z,54.84
2018-04-15T03:15:44.097Z,55.17
2018-04-15T03:18:09.936Z,54.89
2018-04-15T03:20:35.745Z,55.24
2018-04-15T03:23:02.361Z,55.50
2018-04-15T03:25:28.208Z,55.68
2018-04-15T03:27:55.788Z,55.57
2018-04-15T03:30:21.596Z,55.46
2018-04-15T03:32:47.455Z,55.23
2018-04-15T03:35:13.257Z,55.66
2018-04-15T03:37:39.105Z,55.61
2018-04-15T03:40:05.860Z,55.20
2018-04-15T03:42:31.660Z,55.59
2018-04-15T03:44:57.468Z,55.56
2018-04-15T03:47:23.296Z,55.35
2018-04-15T03:49:49.106Z,55.20
2018-04-15T03:52:14.947Z,55.18
2018-04-15T03:54:40.756Z,55.06
2018-04-15T03:57:06.600Z,55.50
2018-04-15T03:59:32.404Z,55.71
2018-04-15T04:01:58.224Z,55.56
2018-04-15T04:04:24.031Z,55.18
2018-04-15T04:06:49.832Z,55.03
2018-04-15T04:09:16.548Z,54.57
2018-04-15T04:11:43.312Z,55.38
2018-04-15T04:14:09.112Z,55.26
2018-04-15T04:16:34.929Z,55.48
2018-04-15T04:19:06.933Z,55.99
2018-04-15T04:21:38.888Z,55.78
2018-04-15T04:24:10.884Z,55.34
2018-04-15T04:26:36.697Z,54.82
2018-04-15T04:29:02.503Z,55.05
2018-04-15T04:31:28.311Z,55.37
2018-04-15T04:33:54.119Z,55.31
2018-04-15T04:36:19.920Z,54.93
2018-04-15T04:38:45.732Z,54.81
2018-04-15T04:41:11.569Z,55.00
2018-04-15T04:43:37.376Z,55.02
2018-04-15T04:46:03.225Z,54.90
2018-04-15T04:48:29.116Z,55.06
2018-04-15T04:50:54.925Z,55.22
2018-04-15T04:53:20.756Z,55.06
2018-04-15T04:55:46.570Z,55.05
2018-04-15T04:58:13.204Z,54.76
2018-04-15T05:00:39.012Z,54.37
2018-04-15T05:03:05.688Z,54.72
2018-04-15T05:05:31.531Z,54.31
2018-04-15T05:07:57.375Z,54.32
2018-04-15T05:10:23.212Z,54.72
2018-04-15T05:12:49.024Z,54.41
2018-04-15T05:15:14.832Z,54.60
2018-04-15T05:17:41.677Z,54.51
2018-04-15T05:20:07.493Z,54.54
2018-04-15T05:22:33.328Z,54.77
2018-04-15T05:24:59.148Z,54.60
2018-04-15T05:27:24.957Z,54.70
2018-04-15T05:29:50.784Z,54.77
2018-04-15T05:32:16.661Z,54.62
2018-04-15T05:34:42.472Z,54.62
2018-04-15T05:37:08.312Z,54.72
2018-04-15T05:39:35.097Z,54.83
2018-04-15T05:42:00.940Z,54.54
2018-04-15T05:44:26.749Z,54.54
2018-04-15T05:46:52.557Z,54.54
2018-04-15T05:49:18.369Z,54.27
2018-04-15T05:51:44.176Z,54.12
2018-04-15T05:54:09.982Z,54.35
2018-04-15T05:56:35.877Z,54.16
2018-04-15T05:59:01.729Z,54.71
2018-04-15T06:01:27.602Z,54.69
2018-04-15T06:03:54.225Z,55.09
2018-04-15T06:06:20.077Z,55.05
2018-04-15T06:08:45.880Z,54.60
2018-04-15T06:11:11.702Z,55.26
2018-04-15T06:13:37.501Z,55.23
2018-04-15T06:16:03.340Z,55.25
2018-04-15T06:18:29.180Z,55.46
2018-04-15T06:20:55.009Z,55.55
2018-04-15T06:23:20.857Z,55.27
2018-04-15T06:25:46.677Z,55.56
2018-04-15T06:28:13.193Z,55.31
2018-04-15T06:30:39.680Z,55.69
2018-04-15T06:33:06.371Z,55.35
2018-04-15T06:35:33.052Z,55.30
2018-04-15T06:37:59.813Z,55.75
2018-04-15T06:40:26.602Z,55.25
2018-04-15T06:42:52.492Z,55.43
2018-04-15T06:45:18.404Z,55.55
2018-04-15T06:47:44.208Z,55.52
2018-04-15T06:50:10.028Z,55.81
2018-04-15T06:52:36.757Z,55.60
2018-04-15T06:55:02.705Z,55.58
2018-04-15T06:57:28.513Z,55.41
2018-04-15T06:59:54.328Z,54.68
2018-04-15T07:02:20.144Z,54.07
2018-04-15T07:04:45.961Z,54.13
2018-04-15T07:07:11.773Z,54.27
2018-04-15T07:09:37.655Z,53.72
2018-04-15T07:12:03.497Z,54.08
2018-04-15T07:14:29.415Z,53.66
2018-04-15T07:16:55.261Z,54.17
2018-04-15T07:19:21.114Z,53.98
2018-04-15T07:21:46.970Z,54.07
2018-04-15T07:24:12.960Z,54.76
2018-04-15T07:26:38.864Z,55.21
2018-04-15T07:29:04.762Z,55.15
2018-04-15T07:31:31.597Z,54.90
2018-04-15T07:33:58.369Z,54.92
2018-04-15T07:36:25.411Z,54.99
2018-04-15T07:38:51.318Z,54.93
2018-04-15T07:41:17.163Z,54.77
2018-04-15T07:43:43.004Z,54.84
2018-04-15T07:46:08.825Z,54.70
2018-04-15T07:48:34.657Z,54.90
2018-04-15T07:51:00.513Z,54.82
2018-04-15T07:53:26.344Z,54.86
2018-04-15T07:55:52.293Z,54.88
2018-04-15T07:58:18.116Z,55.00
2018-04-15T08:00:43.969Z,55.08
2018-04-15T08:03:09.789Z,55.00
2018-04-15T08:05:35.685Z,55.08
2018-04-15T08:08:01.508Z,54.52
2018-04-15T08:10:29.054Z,55.09
2018-04-15T08:12:55.017Z,54.94
2018-04-15T08:15:21.758Z,55.02
2018-04-15T08:17:47.609Z,55.42
2018-04-15T08:20:13.444Z,55.12
2018-04-15T08:22:39.254Z,55.23
2018-04-15T08:25:05.104Z,54.97
2018-04-15T08:27:35.137Z,55.26
2018-04-15T08:30:00.956Z,54.79
2018-04-15T08:32:26.810Z,55.07
2018-04-15T08:34:53.816Z,55.00
2018-04-15T08:37:19.660Z,54.99
2018-04-15T08:39:45.481Z,54.91
2018-04-15T08:42:11.348Z,54.77
2018-04-15T08:44:37.192Z,55.15
2018-04-15T08:47:03.097Z,54.80
2018-04-15T08:49:28.936Z,55.05
2018-04-15T08:51:54.788Z,55.45
2018-04-15T08:54:20.636Z,55.07
2018-04-15T08:56:46.489Z,54.83
2018-04-15T08:59:12.414Z,54.71
2018-04-15T09:01:38.270Z,54.97
2018-04-15T09:04:04.089Z,55.15
2018-04-15T09:06:30.000Z,55.16
2018-04-15T09:08:55.816Z,55.12
2018-04-15T09:11:21.665Z,55.11
2018-04-15T09:13:47.478Z,55.01
2018-04-15T09:16:13.298Z,55.05
2018-04-15T09:18:39.177Z,55.12
2018-04-15T09:21:05.008Z,55.09
2018-04-15T09:23:31.526Z,55.04
2018-04-15T09:25:57.895Z,55.02
2018-04-15T09:28:24.542Z,55.05
2018-04-15T09:30:56.867Z,55.05
2018-04-15T09:33:23.445Z,55.03
2018-04-15T09:35:49.908Z,55.10
2018-04-15T09:38:17.146Z,55.20
2018-04-15T09:40:43.659Z,55.19
2018-04-15T09:43:11.422Z,55.30
2018-04-15T09:45:38.073Z,55.14
2018-04-15T09:48:04.528Z,55.42
2018-04-15T09:50:31.287Z,55.25
2018-04-15T09:52:57.210Z,55.35
2018-04-15T09:55:23.037Z,55.23
2018-04-15T09:57:49.852Z,55.34
2018-04-15T10:00:18.543Z,55.27
2018-04-15T10:02:44.392Z,55.31
2018-04-15T10:05:10.312Z,55.36
2018-04-15T10:07:36.122Z,55.57
2018-04-15T10:10:01.957Z,55.46
2018-04-15T10:12:28.185Z,55.29
2018-04-15T10:14:53.987Z,55.05
2018-04-15T10:17:19.820Z,54.51
2018-04-15T10:19:45.743Z,54.94
2018-04-15T10:22:11.668Z,54.73
2018-04-15T10:24:37.618Z,55.41
2018-04-15T10:27:03.484Z,54.88
2018-04-15T10:29:29.332Z,54.90
2018-04-15T10:31:55.260Z,55.33
2018-04-15T10:34:21.101Z,55.11
2018-04-15T10:36:46.900Z,55.00
2018-04-15T10:39:13.629Z,55.09
2018-04-15T10:41:39.433Z,54.99
2018-04-15T10:44:05.243Z,55.13
2018-04-15T10:46:31.049Z,55.30
2018-04-15T10:48:56.848Z,55.50
2018-04-15T10:51:22.661Z,55.15
2018-04-15T10:53:48.465Z,55.12
2018-04-15T10:56:14.269Z,55.16
2018-04-15T10:58:40.079Z,55.30
2018-04-15T11:01:06.905Z,55.28
2018-04-15T11:03:32.721Z,55.28
2018-04-15T11:05:58.528Z,55.18
2018-04-15T11:08:24.392Z,55.70
2018-04-15T11:10:50.205Z,55.43
2018-04-15T11:13:16.041Z,55.18
2018-04-15T11:15:41.848Z,55.47
2018-04-15T11:18:07.703Z,55.13
2018-04-15T11:20:33.509Z,55.20
2018-04-15T11:22:59.339Z,55.02
2018-04-15T11:25:25.146Z,55.11
2018-04-15T11:27:51.081Z,55.19
2018-04-15T11:30:16.889Z,54.82
2018-04-15T11:32:42.727Z,54.99
2018-04-15T11:35:09.432Z,54.81
2018-04-15T11:37:36.292Z,54.58
2018-04-15T11:40:02.118Z,54.67
2018-04-15T11:42:27.935Z,54.69
2018-04-15T11:44:54.728Z,54.53
2018-04-15T11:47:20.532Z,54.54
2018-04-15T11:49:46.352Z,54.57
2018-04-15T11:52:12.215Z,54.46
2018-04-15T11:54:38.053Z,54.45
2018-04-15T11:57:03.857Z,54.58
2018-04-15T11:59:29.708Z,54.56
2018-04-15T12:01:55.529Z,54.42
2018-04-15T12:04:21.398Z,54.59
2018-04-15T12:06:48.029Z,54.40
2018-04-15T12:09:14.760Z,54.20
2018-04-15T12:11:41.316Z,54.32
2018-04-15T12:14:07.906Z,54.17
2018-04-15T12:16:34.659Z,54.34
2018-04-15T12:19:01.081Z,54.32
2018-04-15T12:21:27.715Z,54.28
2018-04-15T12:23:54.309Z,54.33
2018-04-15T12:26:20.647Z,54.42
2018-04-15T12:28:47.234Z,54.35
2018-04-15T12:31:13.822Z,54.28
2018-04-15T12:33:40.052Z,54.55
2018-04-15T12:36:06.683Z,54.45
2018-04-15T12:38:33.037Z,54.46
2018-04-15T12:40:59.556Z,54.63
2018-04-15T12:43:26.320Z,54.47
2018-04-15T12:45:52.586Z,54.48
2018-04-15T12:48:19.104Z,54.39
2018-04-15T12:50:45.618Z,54.55
2018-04-15T12:53:12.193Z,54.45
2018-04-15T12:55:38.338Z,55.03
2018-04-15T12:58:04.848Z,54.74
2018-04-15T13:00:31.357Z,54.91
2018-04-15T13:02:57.955Z,54.75
2018-04-15T13:05:24.633Z,54.86
2018-04-15T13:07:50.484Z,55.07
2018-04-15T13:10:16.329Z,54.82
2018-04-15T13:12:42.135Z,54.88
2018-04-15T13:15:08.809Z,54.97
2018-04-15T13:17:34.653Z,54.96
2018-04-15T13:20:00.472Z,54.94
2018-04-15T13:22:26.310Z,55.07
2018-04-15T13:24:52.158Z,54.96
2018-04-15T13:27:18.026Z,54.99
2018-04-15T13:29:43.835Z,54.98
2018-04-15T13:32:09.724Z,55.06
2018-04-15T13:34:35.532Z,55.17
2018-04-15T13:37:01.341Z,55.08
2018-04-15T13:39:27.243Z,55.11
2018-04-15T13:41:53.053Z,55.19
2018-04-15T13:44:18.870Z,55.22
2018-04-15T13:46:44.732Z,54.99
2018-04-15T13:49:10.550Z,55.31
2018-04-15T13:51:36.365Z,55.36
2018-04-15T13:54:02.261Z,55.38
2018-04-15T13:56:28.077Z,55.40
2018-04-15T13:58:53.891Z,55.41
2018-04-15T14:01:19.711Z,55.48
2018-04-15T14:03:45.559Z,53.97
2018-04-15T14:06:11.382Z,53.76
2018-04-15T14:08:37.197Z,53.36
2018-04-15T14:11:03.002Z,54.12
2018-04-15T14:13:28.806Z,54.36
2018-04-15T14:15:54.669Z,55.94
2018-04-15T14:18:20.535Z,54.28
2018-04-15T14:20:47.294Z,54.76
2018-04-15T14:23:13.118Z,55.39
2018-04-15T14:25:38.965Z,55.09
2018-04-15T14:28:04.818Z,55.28
2018-04-15T14:30:30.628Z,55.06
2018-04-15T14:32:56.428Z,54.87
2018-04-15T14:35:22.236Z,55.05
2018-04-15T14:37:50.089Z,55.19
2018-04-15T14:40:15.902Z,55.32
2018-04-15T14:42:41.722Z,55.49
2018-04-15T14:45:08.456Z,55.71
2018-04-15T14:47:34.307Z,55.71
2018-04-15T14:50:00.253Z,55.70
2018-04-15T14:52:26.093Z,55.71
2018-04-15T14:54:51.957Z,55.78
2018-04-15T14:57:17.882Z,55.65
2018-04-15T14:59:43.693Z,55.63
2018-04-15T15:02:09.509Z,55.79
2018-04-15T15:04:35.360Z,55.67
2018-04-15T15:07:01.173Z,55.80
2018-04-15T15:09:27.015Z,55.74
2018-04-15T15:11:52.907Z,55.80
2018-04-15T15:14:18.713Z,55.78
2018-04-15T15:16:44.520Z,55.84
2018-04-15T15:19:10.748Z,55.98
2018-04-15T15:21:36.612Z,55.81
2018-04-15T15:24:02.533Z,55.81
2018-04-15T15:26:28.537Z,55.93
2018-04-15T15:28:54.449Z,55.67
2018-04-15T15:31:20.288Z,55.56
2018-04-15T15:33:46.096Z,55.60
2018-04-15T15:36:11.928Z,55.45
2018-04-15T15:38:37.733Z,55.44
2018-04-15T15:41:03.666Z,55.33
2018-04-15T15:43:30.472Z,55.31
2018-04-15T15:45:56.315Z,55.28
2018-04-15T15:48:22.184Z,55.25
2018-04-15T15:50:48.145Z,55.20
2018-04-15T15:53:14.002Z,55.24
2018-04-15T15:55:39.936Z,55.27
2018-04-15T15:58:05.777Z,55.27
2018-04-15T16:00:31.648Z,55.28
2018-04-15T16:02:57.565Z,55.34
2018-04-15T16:05:26.785Z,55.31
2018-04-15T16:07:52.601Z,55.31
2018-04-15T16:10:19.267Z,55.42
2018-04-15T16:12:45.148Z,55.46
2018-04-15T16:15:10.956Z,55.52
2018-04-15T16:17:37.725Z,55.50
2018-04-15T16:20:03.528Z,55.41
2018-04-15T16:22:29.448Z,55.49
2018-04-15T16:24:55.639Z,55.64
2018-04-15T16:27:21.514Z,55.71
2018-04-15T16:29:47.420Z,55.73
2018-04-15T16:32:13.230Z,55.75
2018-04-15T16:34:39.061Z,55.75
2018-04-15T16:37:04.875Z,55.74
2018-04-15T16:39:30.700Z,55.81
2018-04-15T16:41:56.625Z,55.92
2018-04-15T16:44:22.433Z,55.87
2018-04-15T16:46:48.237Z,55.94
2018-04-15T16:49:14.130Z,55.79
2018-04-15T16:51:39.940Z,55.43
2018-04-15T16:54:05.877Z,55.47
2018-04-15T16:56:31.708Z,55.40
2018-04-15T16:58:57.513Z,55.00
2018-04-15T17:01:23.513Z,54.53
2018-04-15T17:03:49.332Z,54.23
2018-04-15T17:06:15.154Z,54.01
2018-04-15T17:08:41.058Z,54.01
2018-04-15T17:11:06.935Z,54.01
2018-04-15T17:13:32.754Z,53.96
2018-04-15T17:15:58.565Z,54.06
2018-04-15T17:18:24.913Z,54.10
2018-04-15T17:20:50.717Z,54.19
2018-04-15T17:23:16.619Z,54.17
2018-04-15T17:25:42.453Z,54.29
2018-04-15T17:28:08.309Z,54.28
2018-04-15T17:30:34.121Z,54.55
2018-04-15T17:32:59.964Z,54.71
2018-04-15T17:35:25.793Z,54.74
2018-04-15T17:37:51.641Z,55.00
2018-04-15T17:40:17.648Z,55.03
2018-04-15T17:42:43.686Z,55.11
2018-04-15T17:45:09.497Z,55.15
2018-04-15T17:47:35.428Z,55.18
2018-04-15T17:50:01.245Z,55.31
2018-04-15T17:52:27.093Z,55.39
2018-04-15T17:54:52.906Z,55.41
2018-04-15T17:57:18.781Z,55.54
2018-04-15T17:59:45.580Z,55.54
2018-04-15T18:02:11.408Z,55.69
2018-04-15T18:04:37.222Z,55.69
2018-04-15T18:07:03.042Z,55.79
2018-04-15T18:09:28.858Z,55.85
2018-04-15T18:11:54.829Z,55.84
2018-04-15T18:14:20.646Z,55.73
2018-04-15T18:16:46.461Z,55.90
2018-04-15T18:19:12.393Z,56.09
2018-04-15T18:21:38.267Z,56.25
2018-04-15T18:24:04.283Z,56.14
2018-04-15T18:26:30.089Z,56.06
2018-04-15T18:28:55.915Z,56.19
2018-04-15T18:31:21.728Z,56.35
2018-04-15T18:33:47.554Z,56.45
2018-04-15T18:36:13.373Z,56.47
2018-04-15T18:38:39.193Z,56.18
2018-04-15T18:41:05.080Z,55.73
2018-04-15T18:43:30.890Z,55.34
2018-04-15T18:45:56.821Z,55.16
2018-04-15T18:48:22.792Z,54.73
2018-04-15T18:50:48.821Z,54.41
2018-04-15T18:53:14.637Z,54.21
2018-04-15T18:55:40.458Z,54.23
2018-04-15T18:58:06.267Z,53.92
2018-04-15T19:00:32.107Z,53.90
2018-04-15T19:02:57.928Z,53.99
2018-04-15T19:05:24.577Z,54.13
2018-04-15T19:07:50.530Z,54.20
2018-04-15T19:10:16.346Z,54.22
2018-04-15T19:12:42.169Z,54.55
2018-04-15T19:15:07.981Z,54.38
2018-04-15T19:17:34.755Z,54.56
2018-04-15T19:20:00.584Z,53.95
2018-04-15T19:22:26.492Z,54.41
2018-04-15T19:24:52.559Z,54.44
2018-04-15T19:27:18.534Z,54.47
2018-04-15T19:29:44.480Z,54.46
2018-04-15T19:32:12.085Z,54.53
2018-04-15T19:34:38.866Z,54.43
2018-04-15T19:37:04.792Z,54.57
2018-04-15T19:39:30.651Z,54.53
2018-04-15T19:41:56.477Z,54.61
2018-04-15T19:44:23.380Z,54.59
2018-04-15T19:46:49.729Z,54.77
2018-04-15T19:49:15.592Z,54.86
2018-04-15T19:51:41.396Z,54.97
2018-04-15T19:54:07.238Z,54.84
2018-04-15T19:56:33.196Z,55.11
2018-04-15T19:58:59.800Z,55.55
2018-04-15T20:01:26.693Z,56.49
2018-04-15T20:03:52.589Z,56.84
2018-04-15T20:06:18.436Z,57.04
2018-04-15T20:08:44.256Z,57.04
2018-04-15T20:11:10.083Z,56.96
2018-04-15T20:13:36.069Z,56.07
2018-04-15T20:16:01.927Z,55.95
2018-04-15T20:18:27.767Z,55.72
2018-04-15T20:20:53.620Z,55.79
2018-04-15T20:23:19.564Z,55.50
2018-04-15T20:25:45.377Z,55.70
2018-04-15T20:28:11.189Z,55.56
2018-04-15T20:30:37.907Z,55.62
2018-04-15T20:33:03.720Z,55.60
2018-04-15T20:35:29.534Z,55.59
2018-04-15T20:37:55.519Z,55.52
2018-04-15T20:40:21.349Z,55.74
2018-04-15T20:42:47.164Z,55.55
2018-04-15T20:45:12.997Z,55.64
2018-04-15T20:47:38.816Z,55.86
2018-04-15T20:50:05.824Z,56.22
2018-04-15T20:52:31.633Z,56.17
2018-04-15T20:54:57.493Z,56.16
2018-04-15T20:57:23.309Z,55.90
2018-04-15T20:59:49.119Z,55.80
2018-04-15T21:02:15.865Z,56.42
2018-04-15T21:04:42.652Z,56.36
2018-04-15T21:07:09.705Z,55.64
2018-04-15T21:09:35.573Z,55.77
2018-04-15T21:12:01.393Z,55.94
2018-04-15T21:14:27.245Z,56.00
2018-04-15T21:16:54.084Z,56.15
2018-04-15T21:19:19.936Z,56.20
2018-04-15T21:21:45.753Z,56.03
2018-04-15T21:24:11.715Z,55.91
2018-04-15T21:26:37.549Z,55.90
2018-04-15T21:29:03.361Z,55.65
2018-04-15T21:31:29.400Z,55.86
2018-04-15T21:33:56.234Z,55.91
2018-04-15T21:36:22.073Z,55.93
2018-04-15T21:38:47.913Z,55.97
2018-04-15T21:41:14.706Z,56.22
2018-04-15T21:43:40.613Z,56.41
2018-04-15T21:46:06.426Z,56.30
2018-04-15T21:48:32.373Z,56.20
2018-04-15T21:50:58.273Z,56.21
2018-04-15T21:53:24.102Z,56.15
2018-04-15T21:55:50.053Z,56.12
2018-04-15T21:58:15.907Z,56.45
2018-04-15T22:00:41.732Z,56.50
2018-04-15T22:03:07.554Z,56.21
2018-04-15T22:05:33.441Z,56.06
2018-04-15T22:07:59.249Z,56.18
2018-04-15T22:10:25.129Z,56.16
2018-04-15T22:12:51.908Z,56.03
2018-04-15T22:15:17.904Z,56.37
2018-04-15T22:17:43.741Z,56.52
2018-04-15T22:20:10.358Z,56.43
2018-04-15T22:22:36.169Z,56.21
2018-04-15T22:25:01.979Z,55.79
2018-04-15T22:27:28.005Z,55.97
2018-04-15T22:29:53.817Z,56.18
2018-04-15T22:32:20.440Z,56.42
2018-04-15T22:34:46.244Z,56.18
2018-04-15T22:37:12.053Z,56.32
2018-04-15T22:39:37.856Z,56.40
2018-04-15T22:42:03.797Z,56.51
2018-04-15T22:44:29.610Z,56.24
2018-04-15T22:46:55.429Z,56.21
2018-04-15T22:49:22.132Z,56.15
2018-04-15T22:51:47.978Z,56.06
2018-04-15T22:54:13.792Z,56.04
2018-04-15T22:56:42.384Z,56.17
2018-04-15T22:59:08.192Z,56.15
2018-04-15T23:01:33.997Z,56.11
2018-04-15T23:04:00.745Z,56.12
2018-04-15T23:06:27.617Z,55.84
2018-04-15T23:08:53.430Z,56.00
2018-04-15T23:11:19.273Z,56.28
2018-04-15T23:13:45.115Z,56.04
2018-04-15T23:16:10.955Z,56.11
2018-04-15T23:18:36.921Z,56.21
2018-04-15T23:21:02.732Z,55.51
2018-04-15T23:23:28.540Z,56.52
2018-04-15T23:25:54.350Z,56.33
2018-04-15T23:28:20.157Z,56.47
2018-04-15T23:30:46.106Z,56.18
2018-04-15T23:33:11.949Z,56.20
2018-04-15T23:35:37.760Z,55.79
2018-04-15T23:38:03.604Z,55.59
2018-04-15T23:40:29.442Z,55.35
2018-04-15T23:42:56.221Z,54.83
2018-04-15T23:45:22.059Z,54.92
2018-04-15T23:47:47.889Z,55.02
2018-04-15T23:50:13.733Z,54.98
2018-04-15T23:52:39.568Z,55.08
2018-04-15T23:55:05.410Z,55.29
2018-04-15T23:57:31.223Z,55.20
2018-04-15T23:59:57.084Z,55.04
